Time;durP1;ratioP1;P1;durP2;ratioP2;P2;SDS_P1;SDS_P2;PMS_P1;PMS_P2;Temp;Humidity;BMP_temperature;BMP_pressure;BME280_temperature;BME280_humidity;BME280_pressure;Samples;Min_cycle;Max_cycle;Signal;HPM_P1;HPM_P2
2022/06/28 00:01:21;;;;;;;;;;;27.40;99.90;;;;;;5093848;28;19916;-73
2022/06/28 00:03:46;;;;;;;;;;;27.40;99.90;;;;;;5112344;28;19904;-72
2022/06/28 00:06:12;;;;;;;;;;;27.30;99.90;;;;;;5110704;28;19907;-74
2022/06/28 00:08:38;;;;;;;;;;;27.20;99.90;;;;;;5104650;28;20004;-72
2022/06/28 00:11:03;;;;;;;;;;;27.00;99.90;;;;;;5094030;28;20027;-71
2022/06/28 00:13:29;;;;;;;;;;;26.90;99.90;;;;;;5098477;28;19944;-72
2022/06/28 00:16:07;;;;;;;;;;;26.90;99.90;;;;;;5099177;28;20041;-72
2022/06/28 00:18:33;;;;;;;;;;;27.00;99.90;;;;;;5099440;28;19946;-72
2022/06/28 00:20:59;;;;;;;;;;;27.10;99.90;;;;;;5097741;28;19914;-73
2022/06/28 00:23:24;;;;;;;;;;;27.00;99.90;;;;;;5095675;28;19908;-72
2022/06/28 00:25:50;;;;;;;;;;;27.00;99.90;;;;;;5095935;28;19911;-72
2022/06/28 00:28:16;;;;;;;;;;;26.90;99.90;;;;;;5101064;27;19912;-73
2022/06/28 00:30:41;;;;;;;;;;;26.80;99.90;;;;;;5089431;28;20033;-72
2022/06/28 00:33:07;;;;;;;;;;;26.80;99.90;;;;;;5099205;28;20246;-73
2022/06/28 00:35:32;;;;;;;;;;;26.70;99.90;;;;;;5098952;28;19961;-73
2022/06/28 00:37:58;;;;;;;;;;;26.60;99.90;;;;;;5097777;28;19911;-71
2022/06/28 00:40:24;;;;;;;;;;;26.60;99.90;;;;;;5108710;28;20510;-71
2022/06/28 00:42:50;;;;;;;;;;;26.60;99.90;;;;;;5111531;28;19911;-72
2022/06/28 00:45:16;;;;;;;;;;;26.70;99.90;;;;;;5110315;28;19914;-72
2022/06/28 00:47:42;;;;;;;;;;;26.80;99.90;;;;;;5111620;28;19904;-72
2022/06/28 00:50:07;;;;;;;;;;;26.90;99.90;;;;;;5109110;28;20068;-72
2022/06/28 00:52:33;;;;;;;;;;;26.90;99.90;;;;;;5104605;28;19914;-72
2022/06/28 00:54:59;;;;;;;;;;;26.90;99.90;;;;;;5110204;28;19914;-72
2022/06/28 00:57:24;;;;;;;;;;;27.00;99.90;;;;;;5110514;28;19998;-72
2022/06/28 00:59:50;;;;;;;;;;;27.00;99.90;;;;;;5111216;28;19946;-72
2022/06/28 01:02:15;;;;;;;;;;;27.00;99.90;;;;;;5111416;28;19933;-72
2022/06/28 01:04:41;;;;;;;;;;;27.00;99.90;;;;;;5109893;28;19908;-72
2022/06/28 01:07:07;;;;;;;;;;;27.00;99.90;;;;;;5111601;28;19903;-70
2022/06/28 01:09:33;;;;;;;;;;;26.90;99.90;;;;;;5111101;28;19908;-72
2022/06/28 01:11:58;;;;;;;;;;;26.90;99.90;;;;;;5105165;28;20273;-72
2022/06/28 01:14:24;;;;;;;;;;;26.90;99.90;;;;;;5109067;28;20429;-72
2022/06/28 01:16:49;;;;;;;;;;;26.80;99.90;;;;;;5111347;28;20438;-73
2022/06/28 01:19:16;;;;;;;;;;;26.80;99.90;;;;;;5109241;28;19999;-72
2022/06/28 01:21:42;;;;;;;;;;;26.80;99.90;;;;;;5106664;28;19915;-72
2022/06/28 01:24:08;;;;;;;;;;;26.80;99.90;;;;;;5118042;28;19939;-72
2022/06/28 01:26:34;;;;;;;;;;;26.80;99.90;;;;;;5114592;28;19934;-73
2022/06/28 01:29:00;;;;;;;;;;;26.80;99.90;;;;;;5112231;28;19957;-73
2022/06/28 01:31:25;;;;;;;;;;;26.70;99.90;;;;;;5109876;28;19990;-72
2022/06/28 01:33:52;;;;;;;;;;;26.60;99.90;;;;;;5109813;28;19904;-72
2022/06/28 01:36:18;;;;;;;;;;;26.50;99.90;;;;;;5111500;28;19960;-72
2022/06/28 01:38:44;;;;;;;;;;;26.40;99.90;;;;;;5100288;28;19908;-72
2022/06/28 01:41:32;;;;;;;;;;;26.40;99.90;;;;;;5096498;28;20293;-72
2022/06/28 01:43:56;;;;;;;;;;;26.40;99.90;;;;;;5099392;28;19923;-72
2022/06/28 01:46:22;;;;;;;;;;;26.40;99.90;;;;;;5096085;28;19991;-72
2022/06/28 01:48:47;;;;;;;;;;;26.40;99.90;;;;;;5096461;28;19990;-72
2022/06/28 01:51:13;;;;;;;;;;;26.30;99.90;;;;;;5096291;28;19908;-70
2022/06/28 01:53:38;;;;;;;;;;;26.20;99.90;;;;;;5097481;28;20066;-71
2022/06/28 01:56:04;;;;;;;;;;;26.10;99.90;;;;;;5095183;28;19981;-72
2022/06/28 01:58:30;;;;;;;;;;;26.10;99.90;;;;;;5095340;28;20340;-71
2022/06/28 02:00:56;;;;;;;;;;;26.10;99.90;;;;;;5095920;28;19942;-74
2022/06/28 02:03:21;;;;;;;;;;;26.10;99.90;;;;;;5097141;28;19911;-72
2022/06/28 02:05:47;;;;;;;;;;;26.00;99.90;;;;;;5098403;28;20427;-72
2022/06/28 02:08:12;;;;;;;;;;;26.00;99.90;;;;;;5098889;28;19965;-72
2022/06/28 02:10:38;;;;;;;;;;;26.10;99.90;;;;;;5094258;28;19912;-72
2022/06/28 02:13:04;;;;;;;;;;;26.20;99.90;;;;;;5098078;28;19916;-71
2022/06/28 02:15:29;;;;;;;;;;;26.20;99.90;;;;;;5096116;28;19907;-72
2022/06/28 02:17:59;;;;;;;;;;;26.20;99.90;;;;;;5094308;28;20036;-71
2022/06/28 02:20:24;;;;;;;;;;;26.30;99.90;;;;;;5094481;28;19919;-71
2022/06/28 02:22:50;;;;;;;;;;;26.20;99.90;;;;;;5108283;28;19908;-72
2022/06/28 02:25:17;;;;;;;;;;;26.20;99.90;;;;;;5109698;28;20131;-72
2022/06/28 02:27:43;;;;;;;;;;;26.20;99.90;;;;;;5111157;28;20429;-72
2022/06/28 02:30:09;;;;;;;;;;;26.40;99.90;;;;;;5095156;28;21873;-71
2022/06/28 02:32:35;;;;;;;;;;;26.60;99.90;;;;;;5101952;28;20396;-72
2022/06/28 02:40:29;;;;;;;;;;;26.70;99.90;;;;;;5099600;28;19965;-71
2022/06/28 02:42:56;;;;;;;;;;;26.60;99.90;;;;;;5100266;28;19912;-71
2022/06/28 02:45:23;;;;;;;;;;;26.70;99.90;;;;;;5099714;28;19927;-71
2022/06/28 02:47:48;;;;;;;;;;;26.80;99.90;;;;;;5101720;28;19908;-71
2022/06/28 02:50:14;;;;;;;;;;;26.80;99.90;;;;;;5095409;28;19995;-71
2022/06/28 02:52:40;;;;;;;;;;;26.80;99.90;;;;;;5098680;28;20314;-71
2022/06/28 02:55:06;;;;;;;;;;;26.80;99.90;;;;;;5099334;28;19951;-72
2022/06/28 02:57:33;;;;;;;;;;;26.80;99.90;;;;;;5098587;28;19907;-72
2022/06/28 02:59:58;;;;;;;;;;;26.70;99.90;;;;;;5099320;28;19915;-71
2022/06/28 03:02:24;;;;;;;;;;;26.70;99.90;;;;;;5101190;28;20310;-70
2022/06/28 03:04:50;;;;;;;;;;;26.70;99.90;;;;;;5105808;28;19955;-71
2022/06/28 03:07:15;;;;;;;;;;;26.70;99.90;;;;;;5113512;28;19907;-71
2022/06/28 03:09:41;;;;;;;;;;;26.70;99.90;;;;;;5104256;28;19926;-71
2022/06/28 03:12:07;;;;;;;;;;;26.70;99.90;;;;;;5099847;28;19911;-73
2022/06/28 03:14:33;;;;;;;;;;;26.80;99.90;;;;;;5098640;28;19908;-72
2022/06/28 03:16:59;;;;;;;;;;;26.80;99.90;;;;;;5101422;28;20217;-73
2022/06/28 03:19:24;;;;;;;;;;;26.90;99.90;;;;;;5099536;28;19934;-71
2022/06/28 03:21:50;;;;;;;;;;;26.90;99.90;;;;;;5097416;28;19915;-71
2022/06/28 03:24:16;;;;;;;;;;;27.00;99.90;;;;;;5099335;28;20012;-71
2022/06/28 03:26:42;;;;;;;;;;;26.90;99.90;;;;;;5096043;28;19947;-72
2022/06/28 03:29:07;;;;;;;;;;;26.90;99.90;;;;;;5098750;28;19919;-72
2022/06/28 03:31:33;;;;;;;;;;;26.90;99.90;;;;;;5092605;28;19973;-72
2022/06/28 03:33:59;;;;;;;;;;;26.90;99.90;;;;;;5100102;28;19908;-71
2022/06/28 03:36:24;;;;;;;;;;;26.90;99.90;;;;;;5097890;28;19927;-71
2022/06/28 03:38:50;;;;;;;;;;;26.80;99.90;;;;;;5100347;28;20372;-72
2022/06/28 03:41:22;;;;;;;;;;;26.90;99.90;;;;;;5100335;28;19923;-72
2022/06/28 03:43:52;;;;;;;;;;;26.90;99.90;;;;;;5098821;28;19919;-71
2022/06/28 03:46:18;;;;;;;;;;;26.90;99.90;;;;;;5097209;28;19908;-71
2022/06/28 03:48:44;;;;;;;;;;;26.90;99.90;;;;;;5097669;28;19942;-72
2022/06/28 03:51:10;;;;;;;;;;;26.90;99.90;;;;;;5111396;28;20464;-72
2022/06/28 03:53:35;;;;;;;;;;;26.90;99.90;;;;;;5110609;28;19994;-73
2022/06/28 03:56:01;;;;;;;;;;;26.90;99.90;;;;;;5095387;28;19907;-72
2022/06/28 03:58:27;;;;;;;;;;;26.90;99.90;;;;;;5101684;28;19938;-72
2022/06/28 04:00:53;;;;;;;;;;;27.00;99.90;;;;;;5098043;28;19908;-73
2022/06/28 04:03:18;;;;;;;;;;;27.00;99.90;;;;;;5094243;28;19912;-72
2022/06/28 04:05:44;;;;;;;;;;;27.10;99.90;;;;;;5099505;28;19915;-71
2022/06/28 04:08:09;;;;;;;;;;;27.10;99.90;;;;;;5098758;28;19907;-72
2022/06/28 04:10:35;;;;;;;;;;;27.10;99.90;;;;;;5100290;28;19920;-72
2022/06/28 04:13:01;;;;;;;;;;;27.10;99.90;;;;;;5099377;28;20019;-73
2022/06/28 04:15:26;;;;;;;;;;;27.20;99.90;;;;;;5095505;28;19916;-73
2022/06/28 04:17:52;;;;;;;;;;;27.10;99.90;;;;;;5098858;28;19964;-72
2022/06/28 04:20:17;;;;;;;;;;;27.30;99.90;;;;;;5094740;28;20037;-74
2022/06/28 04:22:43;;;;;;;;;;;27.20;99.90;;;;;;5100066;28;19918;-73
2022/06/28 04:25:09;;;;;;;;;;;27.20;99.90;;;;;;5097163;28;19980;-73
2022/06/28 04:27:34;;;;;;;;;;;27.30;99.90;;;;;;5095169;28;20303;-75
2022/06/28 04:30:03;;;;;;;;;;;27.30;99.90;;;;;;5096975;28;19965;-73
2022/06/28 04:32:29;;;;;;;;;;;27.40;99.90;;;;;;5095357;28;19911;-72
2022/06/28 04:34:55;;;;;;;;;;;27.50;99.90;;;;;;5099271;28;21859;-72
2022/06/28 04:37:20;;;;;;;;;;;27.50;99.90;;;;;;5097223;28;19919;-72
2022/06/28 04:39:46;;;;;;;;;;;27.60;99.90;;;;;;5095219;28;19907;-73
2022/06/28 04:42:34;;;;;;;;;;;27.70;99.90;;;;;;5096599;28;19912;-73
2022/06/28 04:45:14;;;;;;;;;;;27.80;99.90;;;;;;5100297;28;19908;-75
2022/06/28 04:47:42;;;;;;;;;;;27.80;99.90;;;;;;5098966;28;19914;-72
2022/06/28 04:50:08;;;;;;;;;;;27.80;99.90;;;;;;5098143;28;19942;-71
2022/06/28 04:52:34;;;;;;;;;;;27.90;99.90;;;;;;5094882;28;19911;-71
2022/06/28 04:54:59;;;;;;;;;;;27.90;99.90;;;;;;5093019;28;19928;-73
2022/06/28 04:57:25;;;;;;;;;;;28.00;99.90;;;;;;5098812;28;19915;-72
2022/06/28 04:59:51;;;;;;;;;;;28.10;99.90;;;;;;5095867;28;20112;-72
2022/06/28 05:02:16;;;;;;;;;;;28.20;99.90;;;;;;5094587;28;20254;-72
2022/06/28 05:04:42;;;;;;;;;;;28.30;99.90;;;;;;5099066;28;20367;-72
2022/06/28 05:07:07;;;;;;;;;;;28.40;99.90;;;;;;5097676;28;19908;-71
2022/06/28 05:09:33;;;;;;;;;;;28.40;99.90;;;;;;5094978;28;20430;-71
2022/06/28 05:11:58;;;;;;;;;;;28.40;99.90;;;;;;5098080;28;19915;-72
2022/06/28 05:14:24;;;;;;;;;;;28.30;99.90;;;;;;5102378;28;19908;-72
2022/06/28 05:16:50;;;;;;;;;;;28.20;99.90;;;;;;5111096;28;19999;-71
2022/06/28 05:19:15;;;;;;;;;;;28.20;99.90;;;;;;5109082;28;19907;-70
2022/06/28 05:21:41;;;;;;;;;;;28.20;99.90;;;;;;5096476;28;20021;-73
2022/06/28 05:24:06;;;;;;;;;;;28.20;99.90;;;;;;5097776;28;19969;-70
2022/06/28 05:26:32;;;;;;;;;;;28.20;99.90;;;;;;5098695;28;19912;-71
2022/06/28 05:28:57;;;;;;;;;;;28.30;99.90;;;;;;5095090;28;19914;-72
2022/06/28 05:31:23;;;;;;;;;;;28.30;99.90;;;;;;5095449;28;20361;-70
2022/06/28 05:33:53;;;;;;;;;;;28.30;99.90;;;;;;5098471;28;19983;-67
2022/06/28 05:36:19;;;;;;;;;;;28.40;99.90;;;;;;5096978;28;19911;-65
2022/06/28 05:38:45;;;;;;;;;;;28.40;99.90;;;;;;5103362;28;19926;-71
2022/06/28 05:41:10;;;;;;;;;;;28.40;99.90;;;;;;5104096;28;19907;-67
2022/06/28 05:43:36;;;;;;;;;;;28.40;99.90;;;;;;5101495;28;19908;-68
2022/06/28 05:46:04;;;;;;;;;;;28.60;99.90;;;;;;5110327;28;19915;-68
2022/06/28 05:48:30;;;;;;;;;;;28.70;99.90;;;;;;5109139;28;19912;-68
2022/06/28 05:50:55;;;;;;;;;;;28.80;99.90;;;;;;5104439;28;20296;-68
2022/06/28 05:53:21;;;;;;;;;;;28.80;99.90;;;;;;5106985;28;20314;-69
2022/06/28 05:55:46;;;;;;;;;;;28.90;99.90;;;;;;5103465;28;19914;-69
2022/06/28 05:58:12;;;;;;;;;;;29.10;99.90;;;;;;5104194;28;20337;-68
2022/06/28 06:00:39;;;;;;;;;;;29.10;99.90;;;;;;5105162;28;19986;-70
2022/06/28 06:03:05;;;;;;;;;;;29.20;99.90;;;;;;5110840;28;19991;-70
2022/06/28 06:05:30;;;;;;;;;;;29.20;99.90;;;;;;5104795;28;20326;-69
2022/06/28 06:07:59;;;;;;;;;;;29.30;99.90;;;;;;5111124;28;20001;-68
2022/06/28 06:10:25;;;;;;;;;;;29.40;99.90;;;;;;5112996;28;19907;-68
2022/06/28 06:12:50;;;;;;;;;;;29.50;99.90;;;;;;5107432;28;19981;-68
2022/06/28 06:15:16;;;;;;;;;;;29.60;99.90;;;;;;5100286;28;19911;-68
2022/06/28 06:17:42;;;;;;;;;;;29.80;99.90;;;;;;5115271;28;19958;-68
2022/06/28 06:20:08;;;;;;;;;;;29.80;99.90;;;;;;5109406;27;19912;-70
2022/06/28 06:22:34;;;;;;;;;;;29.80;99.90;;;;;;5110855;28;19952;-69
2022/06/28 06:25:00;;;;;;;;;;;29.90;99.90;;;;;;5115308;28;19958;-68
2022/06/28 06:27:25;;;;;;;;;;;30.00;99.90;;;;;;5110226;28;19914;-69
2022/06/28 06:29:51;;;;;;;;;;;30.20;99.90;;;;;;5103589;28;19963;-69
2022/06/28 06:32:16;;;;;;;;;;;30.30;99.90;;;;;;5109473;28;19907;-68
2022/06/28 06:34:42;;;;;;;;;;;30.40;99.90;;;;;;5108969;28;19916;-69
2022/06/28 06:37:09;;;;;;;;;;;30.50;99.90;;;;;;5115372;28;20541;-68
2022/06/28 06:39:42;;;;;;;;;;;30.70;99.90;;;;;;5113537;28;19935;-69
2022/06/28 06:42:13;;;;;;;;;;;30.80;99.90;;;;;;5113737;28;19914;-69
2022/06/28 06:45:07;;;;;;;;;;;31.00;99.90;;;;;;5106582;28;19923;-68
2022/06/28 06:47:40;;;;;;;;;;;31.20;99.90;;;;;;5115518;28;19904;-68
2022/06/28 06:50:08;;;;;;;;;;;31.40;99.90;;;;;;5111165;28;19916;-70
2022/06/28 06:52:35;;;;;;;;;;;31.50;99.90;;;;;;5111426;28;19904;-69
2022/06/28 06:55:01;;;;;;;;;;;31.60;99.90;;;;;;5094900;28;19904;-70
2022/06/28 06:57:26;;;;;;;;;;;31.80;99.90;;;;;;5106981;28;19914;-68
2022/06/28 06:59:52;;;;;;;;;;;31.90;99.90;;;;;;5115678;27;19998;-70
2022/06/28 07:02:17;;;;;;;;;;;32.00;99.90;;;;;;5109635;28;19907;-64
2022/06/28 07:04:43;;;;;;;;;;;31.90;99.90;;;;;;5114727;28;20545;-62
2022/06/28 07:07:09;;;;;;;;;;;31.90;99.90;;;;;;5112597;28;19907;-64
2022/06/28 07:09:34;;;;;;;;;;;32.00;99.90;;;;;;5105856;27;19923;-64
2022/06/28 07:12:00;;;;;;;;;;;32.00;99.90;;;;;;5107541;28;19907;-64
2022/06/28 07:14:25;;;;;;;;;;;32.00;99.90;;;;;;5098348;28;20002;-64
2022/06/28 07:16:52;;;;;;;;;;;32.00;99.90;;;;;;5106976;28;19909;-64
2022/06/28 07:19:18;;;;;;;;;;;32.00;99.90;;;;;;5095073;28;19937;-63
2022/06/28 07:21:44;;;;;;;;;;;32.00;99.90;;;;;;5109808;28;19923;-63
2022/06/28 07:24:11;;;;;;;;;;;32.00;99.90;;;;;;5114540;28;19903;-64
2022/06/28 07:26:37;;;;;;;;;;;32.00;99.90;;;;;;5107607;28;19915;-62
2022/06/28 07:29:05;;;;;;;;;;;32.00;99.90;;;;;;5113768;28;19908;-64
2022/06/28 07:31:40;;;;;;;;;;;32.00;99.90;;;;;;5107420;28;19914;-64
2022/06/28 07:34:08;;;;;;;;;;;32.20;99.90;;;;;;5103942;27;19980;-62
2022/06/28 07:36:33;;;;;;;;;;;32.10;99.90;;;;;;5104978;28;19962;-64
2022/06/28 07:38:59;;;;;;;;;;;31.60;99.90;;;;;;5108266;28;20320;-64
2022/06/28 07:41:25;;;;;;;;;;;31.30;99.90;;;;;;5110054;28;19908;-66
2022/06/28 07:43:53;;;;;;;;;;;31.30;99.90;;;;;;5107461;28;19908;-63
2022/06/28 07:46:19;;;;;;;;;;;31.80;99.90;;;;;;5106994;28;20053;-64
2022/06/28 07:48:45;;;;;;;;;;;31.00;99.90;;;;;;5094072;27;20003;-68
2022/06/28 07:53:55;;;;;;;;;;;31.30;99.90;;;;;;5112920;28;19953;-63
2022/06/28 07:56:21;;;;;;;;;;;31.60;99.90;;;;;;5113056;28;19904;-65
2022/06/28 07:58:46;;;;;;;;;;;31.70;99.90;;;;;;5106646;28;20316;-63
2022/06/28 08:01:12;;;;;;;;;;;31.90;99.90;;;;;;5107886;28;20258;-66
2022/06/28 08:03:37;;;;;;;;;;;32.10;99.90;;;;;;5107765;28;19943;-67
2022/06/28 08:06:03;;;;;;;;;;;32.20;99.90;;;;;;5111222;28;20288;-67
2022/06/28 08:08:29;;;;;;;;;;;32.30;99.90;;;;;;5112134;28;19904;-63
2022/06/28 08:10:54;;;;;;;;;;;32.20;99.90;;;;;;5110165;28;20342;-64
2022/06/28 08:13:20;;;;;;;;;;;32.10;99.90;;;;;;5110586;28;19960;-63
2022/06/28 08:15:45;;;;;;;;;;;31.90;99.90;;;;;;5106088;28;19912;-67
2022/06/28 08:18:13;;;;;;;;;;;32.10;99.90;;;;;;5110334;28;19965;-62
2022/06/28 08:20:38;;;;;;;;;;;32.70;99.90;;;;;;5110063;28;19908;-63
2022/06/28 08:23:04;;;;;;;;;;;33.20;99.90;;;;;;5109963;28;20032;-64
2022/06/28 08:25:30;;;;;;;;;;;32.80;99.90;;;;;;5112811;28;19904;-64
2022/06/28 08:27:55;;;;;;;;;;;32.80;99.90;;;;;;5109881;28;19912;-62
2022/06/28 08:30:21;;;;;;;;;;;32.80;99.90;;;;;;5110848;28;19992;-64
2022/06/28 08:32:46;;;;;;;;;;;32.60;99.90;;;;;;5106053;28;20423;-63
2022/06/28 08:35:12;;;;;;;;;;;32.10;99.90;;;;;;5103924;28;19923;-62
2022/06/28 08:37:38;;;;;;;;;;;31.90;99.90;;;;;;5104624;28;20407;-62
2022/06/28 08:40:04;;;;;;;;;;;31.80;99.90;;;;;;5108058;28;19910;-62
2022/06/28 08:42:32;;;;;;;;;;;31.80;99.90;;;;;;5106411;28;19953;-62
2022/06/28 08:44:59;;;;;;;;;;;31.60;99.90;;;;;;5107967;28;19956;-62
2022/06/28 08:47:24;;;;;;;;;;;31.40;99.90;;;;;;5112294;28;20353;-64
2022/06/28 08:50:00;;;;;;;;;;;31.10;99.90;;;;;;5107683;28;19912;-62
2022/06/28 08:52:26;;;;;;;;;;;31.20;99.90;;;;;;5104811;28;19911;-64
2022/06/28 08:54:52;;;;;;;;;;;31.20;99.90;;;;;;5107884;28;19914;-63
2022/06/28 08:57:18;;;;;;;;;;;31.00;99.90;;;;;;5109400;28;19914;-64
2022/06/28 08:59:44;;;;;;;;;;;31.00;99.90;;;;;;5108534;28;19912;-63
2022/06/28 09:02:12;;;;;;;;;;;31.10;99.90;;;;;;5107281;28;19912;-64
2022/06/28 09:04:38;;;;;;;;;;;31.00;99.90;;;;;;5109922;28;19904;-62
2022/06/28 09:07:04;;;;;;;;;;;30.60;99.90;;;;;;5106843;28;19908;-61
2022/06/28 09:09:30;;;;;;;;;;;30.40;99.90;;;;;;5109194;28;19915;-67
2022/06/28 09:11:55;;;;;;;;;;;30.40;99.90;;;;;;5110616;28;20011;-68
2022/06/28 09:14:25;;;;;;;;;;;30.40;99.90;;;;;;5105834;28;19922;-67
2022/06/28 09:16:51;;;;;;;;;;;30.40;99.90;;;;;;5101221;28;20326;-66
2022/06/28 09:19:17;;;;;;;;;;;30.30;99.90;;;;;;5106473;28;19911;-66
2022/06/28 09:21:43;;;;;;;;;;;30.20;99.90;;;;;;5110536;27;20249;-69
2022/06/28 09:24:09;;;;;;;;;;;30.10;99.90;;;;;;5106711;27;20149;-69
2022/06/28 09:26:34;;;;;;;;;;;30.20;99.90;;;;;;5109482;27;19939;-70
2022/06/28 09:29:00;;;;;;;;;;;30.20;99.90;;;;;;5102700;28;19918;-69
2022/06/28 09:31:27;;;;;;;;;;;30.30;99.90;;;;;;5104944;28;19934;-69
2022/06/28 09:34:02;;;;;;;;;;;30.40;99.90;;;;;;5098566;28;20009;-69
2022/06/28 09:36:28;;;;;;;;;;;30.50;99.90;;;;;;5108838;28;19986;-69
2022/06/28 09:38:56;;;;;;;;;;;30.60;99.90;;;;;;5111096;28;19931;-69
2022/06/28 09:41:29;;;;;;;;;;;30.40;99.90;;;;;;5112198;27;19953;-69
2022/06/28 09:43:55;;;;;;;;;;;30.50;99.90;;;;;;5105291;28;19915;-69
2022/06/28 09:46:23;;;;;;;;;;;30.70;99.90;;;;;;5097398;28;19943;-67
2022/06/28 09:48:48;;;;;;;;;;;30.90;99.90;;;;;;5096427;28;20265;-69
2022/06/28 09:51:21;;;;;;;;;;;31.10;99.90;;;;;;5107129;28;19907;-69
2022/06/28 09:53:48;;;;;;;;;;;31.20;99.90;;;;;;5102444;28;19966;-69
2022/06/28 09:56:13;;;;;;;;;;;31.30;99.90;;;;;;5084954;28;19919;-70
2022/06/28 09:58:39;;;;;;;;;;;31.40;99.90;;;;;;5093502;28;19916;-69
2022/06/28 10:01:06;;;;;;;;;;;31.40;99.90;;;;;;5087537;28;19922;-70
2022/06/28 10:03:32;;;;;;;;;;;31.30;99.90;;;;;;5095757;28;19908;-70
2022/06/28 10:05:58;;;;;;;;;;;31.20;99.90;;;;;;5093259;28;21711;-71
2022/06/28 10:08:24;;;;;;;;;;;31.10;99.90;;;;;;5097207;28;19911;-70
2022/06/28 10:10:50;;;;;;;;;;;30.90;99.90;;;;;;5102186;28;19943;-69
2022/06/28 10:16:09;;;;;;;;;;;30.70;99.90;;;;;;5108506;28;19961;-70
2022/06/28 10:18:35;;;;;;;;;;;30.60;99.90;;;;;;5104241;28;20412;-69
2022/06/28 10:21:01;;;;;;;;;;;30.70;99.90;;;;;;5105365;28;20014;-73
2022/06/28 10:23:36;;;;;;;;;;;30.70;99.90;;;;;;5110066;28;19987;-71
2022/06/28 10:26:08;;;;;;;;;;;30.80;99.90;;;;;;5099403;28;19984;-69
2022/06/28 10:28:39;;;;;;;;;;;30.90;99.90;;;;;;5099963;28;19914;-74
2022/06/28 10:31:23;;;;;;;;;;;30.90;99.90;;;;;;5104756;28;19912;-69
2022/06/28 10:33:50;;;;;;;;;;;30.80;99.90;;;;;;5100810;28;19994;-69
2022/06/28 10:36:16;;;;;;;;;;;30.90;99.90;;;;;;5089258;28;19965;-74
2022/06/28 10:39:00;;;;;;;;;;;30.90;99.90;;;;;;5091552;28;19911;-70
2022/06/28 10:41:45;;;;;;;;;;;30.80;99.90;;;;;;5099276;28;19916;-70
2022/06/28 10:44:10;;;;;;;;;;;30.80;99.90;;;;;;5103004;28;19908;-71
2022/06/28 10:46:36;;;;;;;;;;;31.10;99.90;;;;;;5104492;28;19920;-70
2022/06/28 10:49:03;;;;;;;;;;;31.10;99.90;;;;;;5098163;28;19908;-70
2022/06/28 10:51:29;;;;;;;;;;;30.90;99.90;;;;;;5103818;28;19914;-70
2022/06/28 10:53:57;;;;;;;;;;;31.00;99.90;;;;;;5109351;28;20334;-68
2022/06/28 10:56:26;;;;;;;;;;;31.00;99.90;;;;;;5110856;28;19907;-72
2022/06/28 10:58:55;;;;;;;;;;;31.10;99.90;;;;;;5108206;28;19955;-71
2022/06/28 11:01:39;;;;;;;;;;;31.00;99.90;;;;;;5111698;28;19907;-70
2022/06/28 11:04:19;;;;;;;;;;;31.10;99.90;;;;;;5108248;28;20305;-69
2022/06/28 11:06:46;;;;;;;;;;;31.20;99.90;;;;;;5110635;28;19912;-70
2022/06/28 11:09:15;;;;;;;;;;;31.10;99.90;;;;;;5104566;28;19973;-68
2022/06/28 11:11:59;;;;;;;;;;;31.30;99.90;;;;;;5106220;28;19961;-69
2022/06/28 11:14:29;;;;;;;;;;;31.40;99.90;;;;;;5109339;28;19912;-71
2022/06/28 11:16:56;;;;;;;;;;;31.40;99.90;;;;;;5106683;28;20361;-71
2022/06/28 11:19:22;;;;;;;;;;;31.50;99.90;;;;;;5106501;28;19916;-69
2022/06/28 11:21:48;;;;;;;;;;;31.50;99.90;;;;;;5106353;28;19920;-69
2022/06/28 11:24:14;;;;;;;;;;;31.50;99.90;;;;;;5113735;28;19908;-69
2022/06/28 11:29:24;;;;;;;;;;;31.50;99.90;;;;;;5112920;28;20008;-69
2022/06/28 11:31:49;;;;;;;;;;;31.60;99.90;;;;;;5104670;28;20360;-68
2022/06/28 11:34:22;;;;;;;;;;;31.70;99.90;;;;;;5098934;28;19951;-69
2022/06/28 11:36:48;;;;;;;;;;;31.60;99.90;;;;;;5104771;28;19908;-70
2022/06/28 11:39:21;;;;;;;;;;;31.80;99.90;;;;;;5111866;28;19915;-68
2022/06/28 11:41:51;;;;;;;;;;;32.00;99.90;;;;;;5112545;28;19908;-68
2022/06/28 11:44:16;;;;;;;;;;;31.40;99.90;;;;;;5104670;28;19908;-69
2022/06/28 11:46:43;;;;;;;;;;;31.10;99.90;;;;;;5107179;28;20277;-69
2022/06/28 11:49:09;;;;;;;;;;;31.30;99.90;;;;;;5108119;28;19907;-68
2022/06/28 11:51:34;;;;;;;;;;;31.30;99.90;;;;;;5111118;28;20299;-72
2022/06/28 11:54:05;;;;;;;;;;;31.60;99.90;;;;;;5112833;28;19911;-69
2022/06/28 11:56:44;;;;;;;;;;;31.80;99.90;;;;;;5112016;28;19911;-70
2022/06/28 11:59:09;;;;;;;;;;;32.20;99.90;;;;;;5104573;28;19907;-69
2022/06/28 12:01:42;;;;;;;;;;;32.20;99.90;;;;;;5115333;28;19953;-70
2022/06/28 12:04:08;;;;;;;;;;;32.40;99.90;;;;;;5118138;28;19919;-69
2022/06/28 12:06:34;;;;;;;;;;;32.30;99.90;;;;;;5100243;28;19957;-69
2022/06/28 12:09:00;;;;;;;;;;;32.40;99.90;;;;;;5114210;28;19908;-68
2022/06/28 12:11:31;;;;;;;;;;;32.60;99.90;;;;;;5118857;28;19904;-70
2022/06/28 12:14:04;;;;;;;;;;;32.70;99.90;;;;;;5121679;28;20103;-73
2022/06/28 12:16:31;;;;;;;;;;;32.60;99.90;;;;;;5115806;28;20353;-73
2022/06/28 12:18:57;;;;;;;;;;;32.50;99.90;;;;;;5118474;28;19918;-72
2022/06/28 12:21:23;;;;;;;;;;;32.30;99.90;;;;;;5118741;28;19998;-73
2022/06/28 12:23:53;;;;;;;;;;;32.40;99.90;;;;;;5113545;27;19908;-73
2022/06/28 12:26:20;;;;;;;;;;;32.50;99.90;;;;;;5117629;28;19904;-73
2022/06/28 12:28:46;;;;;;;;;;;32.70;99.90;;;;;;5103245;28;19911;-71
2022/06/28 12:31:12;;;;;;;;;;;32.60;99.90;;;;;;5112705;28;20364;-73
2022/06/28 12:33:37;;;;;;;;;;;32.40;99.90;;;;;;5103082;28;19912;-71
2022/06/28 12:36:03;;;;;;;;;;;32.40;99.90;;;;;;5115113;27;20388;-72
2022/06/28 12:38:31;;;;;;;;;;;32.20;99.90;;;;;;5096168;28;20609;-72
2022/06/28 12:40:57;;;;;;;;;;;32.00;99.90;;;;;;5104995;28;19911;-69
2022/06/28 12:43:23;;;;;;;;;;;31.70;99.90;;;;;;5119477;27;19917;-69
2022/06/28 12:45:49;;;;;;;;;;;31.60;99.90;;;;;;5120916;28;20307;-70
2022/06/28 12:48:15;;;;;;;;;;;31.20;99.90;;;;;;5112130;28;20382;-69
2022/06/28 12:50:41;;;;;;;;;;;30.90;99.90;;;;;;5104377;28;20015;-68
2022/06/28 12:53:06;;;;;;;;;;;30.80;99.90;;;;;;5107372;28;19971;-68
2022/06/28 12:55:32;;;;;;;;;;;30.40;99.90;;;;;;5109907;27;19929;-69
2022/06/28 12:57:58;;;;;;;;;;;30.30;99.90;;;;;;5113654;27;19974;-68
2022/06/28 13:00:24;;;;;;;;;;;30.40;99.90;;;;;;5113311;27;19908;-69
2022/06/28 13:02:49;;;;;;;;;;;30.50;99.90;;;;;;5111038;28;19999;-68
2022/06/28 13:05:15;;;;;;;;;;;30.60;99.90;;;;;;5114409;27;19903;-67
2022/06/28 13:07:41;;;;;;;;;;;30.80;99.90;;;;;;5094709;28;20395;-69
2022/06/28 13:10:11;;;;;;;;;;;31.00;99.90;;;;;;5109895;28;19954;-69
2022/06/28 13:12:36;;;;;;;;;;;31.20;99.90;;;;;;5105069;28;19911;-68
2022/06/28 13:15:02;;;;;;;;;;;31.40;99.90;;;;;;5112304;28;19921;-68
2022/06/28 13:17:28;;;;;;;;;;;31.50;99.90;;;;;;5110064;28;19907;-69
2022/06/28 13:19:53;;;;;;;;;;;31.50;99.90;;;;;;5109155;28;19911;-69
2022/06/28 13:22:19;;;;;;;;;;;31.40;99.90;;;;;;5109832;28;19904;-68
2022/06/28 13:24:44;;;;;;;;;;;31.40;99.90;;;;;;5092018;28;19912;-68
2022/06/28 13:27:10;;;;;;;;;;;31.40;99.90;;;;;;5091923;28;19912;-68
2022/06/28 13:29:36;;;;;;;;;;;31.10;99.90;;;;;;5093469;28;20365;-69
2022/06/28 13:32:01;;;;;;;;;;;31.00;99.90;;;;;;5089055;28;20328;-70
2022/06/28 13:34:28;;;;;;;;;;;30.90;99.90;;;;;;5089313;28;21528;-68
2022/06/28 13:36:53;;;;;;;;;;;30.80;99.90;;;;;;5097836;27;19908;-67
2022/06/28 13:39:19;;;;;;;;;;;30.80;99.90;;;;;;5091219;28;20003;-68
2022/06/28 13:41:45;;;;;;;;;;;31.10;99.90;;;;;;5105099;27;19907;-68
2022/06/28 13:44:12;;;;;;;;;;;31.50;99.90;;;;;;5114699;27;19912;-68
2022/06/28 13:46:38;;;;;;;;;;;31.80;99.90;;;;;;5109648;28;19915;-67
2022/06/28 13:49:03;;;;;;;;;;;32.10;99.90;;;;;;5099038;28;19908;-67
2022/06/28 13:51:31;;;;;;;;;;;32.50;99.90;;;;;;5107300;28;20409;-68
2022/06/28 13:53:56;;;;;;;;;;;32.80;99.90;;;;;;5109089;28;19907;-69
2022/06/28 13:56:22;;;;;;;;;;;33.50;99.90;;;;;;5105272;28;19915;-69
2022/06/28 13:58:48;;;;;;;;;;;33.80;99.90;;;;;;5105635;28;19912;-68
2022/06/28 14:01:14;;;;;;;;;;;34.00;99.90;;;;;;5108836;28;19904;-69
2022/06/28 14:03:39;;;;;;;;;;;33.40;99.90;;;;;;5103998;28;19907;-69
2022/06/28 14:06:05;;;;;;;;;;;32.90;99.90;;;;;;5107566;28;19943;-68
2022/06/28 14:08:31;;;;;;;;;;;32.30;99.90;;;;;;5111504;27;20016;-69
2022/06/28 14:10:56;;;;;;;;;;;31.80;99.90;;;;;;5110158;28;19956;-68
2022/06/28 14:13:22;;;;;;;;;;;31.60;99.90;;;;;;5109383;28;19903;-69
2022/06/28 14:15:48;;;;;;;;;;;31.70;99.90;;;;;;5104639;28;19907;-68
2022/06/28 14:18:14;;;;;;;;;;;31.50;99.90;;;;;;5105281;28;20638;-68
2022/06/28 14:20:40;;;;;;;;;;;31.70;99.90;;;;;;5108734;28;19984;-68
2022/06/28 14:23:05;;;;;;;;;;;31.70;99.90;;;;;;5109881;28;19911;-69
2022/06/28 14:25:32;;;;;;;;;;;31.70;99.90;;;;;;5115294;28;19907;-69
2022/06/28 14:27:57;;;;;;;;;;;31.90;99.90;;;;;;5111149;28;19914;-69